Paterna, Spain
Current Conditions -  °F | °C
As of 3:00 PM on Monday 20 Oct 2014 (Local Time) from LEVC Reporting Station
Clear Clear  
Wind Chill: 81°   Ceiling: Unl
Heat Index: 81°   Visibility: 6mi
Dew Point: 54°   Wind: 3mph
Humidity: 39%   Direction: 130°SE
Pressure: 30.15"   Gusts: NA
Location:  39.5°N, 0.44°W
Report Text: LEVC 201300Z 13003KT 080V170 CAVOK 27/12 Q1021 NOSIG
Loading
Personal Weather Stations






























Interactive Weather Map
Tropical Storm Tracking
New forecast layout! Learn more

10-Day Weather Forecast

Advertisements
Track Severe Weather on mobile